Terminal Aerodrome Forecast
Issued by NWS

Home | Current Version | Previous Version | Text Only | Print | Product List | Glossary On
Versions: 1 2 3 4 5 6 7 8 9 10 11 12 13 14 15 16 17 18 19 20 21 22 23 24
000
FTUS44 KOUN 252326
TAFWWR
TAF
KWWR 252326Z 2600/2624 14008KT P6SM BKN100
      TEMPO 2600/2601 VRB25KT 5SM -TSRA BKN050CB
     FM261600 15007KT P6SM BKN050=

USA.gov is the U.S. government's official web portal to all federal, state and local government web resources and services.